createdAt,value
2017-03-07T00:00:49.518Z,998.14
2017-03-07T00:02:02.576Z,998.12
2017-03-07T00:03:15.618Z,998.2
2017-03-07T00:04:27.934Z,998.16
2017-03-07T00:05:41.034Z,998.16
2017-03-07T00:06:54.407Z,998.21
2017-03-07T00:08:07.480Z,998.21
2017-03-07T00:09:20.588Z,998.26
2017-03-07T00:10:33.297Z,998.24
2017-03-07T00:11:46.346Z,998.24
2017-03-07T00:12:59.452Z,998.28
2017-03-07T00:14:12.531Z,998.29
2017-03-07T00:15:24.805Z,998.3
2017-03-07T00:16:37.873Z,998.34
2017-03-07T00:17:50.947Z,998.33
2017-03-07T00:19:03.644Z,998.28
2017-03-07T00:20:16.710Z,998.37
2017-03-07T00:21:29.384Z,998.3
2017-03-07T00:22:42.455Z,998.36
2017-03-07T00:23:55.507Z,998.38
2017-03-07T00:25:08.186Z,998.4
2017-03-07T00:26:21.244Z,998.42
2017-03-07T00:27:34.339Z,998.4
2017-03-07T00:28:47.406Z,998.47
2017-03-07T00:30:00.456Z,998.46
2017-03-07T00:31:13.527Z,998.49
2017-03-07T00:32:26.219Z,998.46
2017-03-07T00:33:38.889Z,998.5
2017-03-07T00:34:51.561Z,998.48
2017-03-07T00:36:04.610Z,998.55
2017-03-07T00:37:17.278Z,998.5
2017-03-07T00:38:29.927Z,998.5
2017-03-07T00:39:43.275Z,998.53
2017-03-07T00:40:56.314Z,998.51
2017-03-07T00:42:08.983Z,998.56
2017-03-07T00:43:22.048Z,998.44
2017-03-07T00:44:34.749Z,998.53
2017-03-07T00:45:47.801Z,998.61
2017-03-07T00:47:00.869Z,998.55
2017-03-07T00:48:13.943Z,998.52
2017-03-07T00:49:27.012Z,998.56
2017-03-07T00:50:40.057Z,998.52
2017-03-07T00:51:53.147Z,998.53
2017-03-07T00:53:06.230Z,998.51
2017-03-07T00:54:19.298Z,998.52
2017-03-07T00:55:32.316Z,998.49
2017-03-07T00:56:45.386Z,998.52
2017-03-07T00:57:58.514Z,998.57
2017-03-07T00:59:11.599Z,998.54
2017-03-07T01:00:24.324Z,998.56
2017-03-07T01:01:37.374Z,998.57
2017-03-07T01:02:50.437Z,998.52
2017-03-07T01:04:03.486Z,998.56
2017-03-07T01:05:16.507Z,998.55
2017-03-07T01:06:29.553Z,998.55
2017-03-07T01:07:42.599Z,998.55
2017-03-07T01:08:55.673Z,998.58
2017-03-07T01:10:08.394Z,998.58
2017-03-07T01:11:21.453Z,998.54
2017-03-07T01:12:34.153Z,998.54
2017-03-07T01:13:46.855Z,998.57
2017-03-07T01:14:59.904Z,998.6
2017-03-07T01:16:12.966Z,998.57
2017-03-07T01:17:25.619Z,998.57
2017-03-07T01:18:38.662Z,998.6
2017-03-07T01:19:51.703Z,998.56
2017-03-07T01:21:04.910Z,998.6
2017-03-07T01:22:18.000Z,998.62
2017-03-07T01:23:30.713Z,998.67
2017-03-07T01:24:43.791Z,998.66
2017-03-07T01:25:56.845Z,998.67
2017-03-07T01:27:09.908Z,998.7
2017-03-07T01:28:23.204Z,998.69
2017-03-07T01:29:36.250Z,998.7
2017-03-07T01:30:49.299Z,998.71
2017-03-07T01:32:01.995Z,998.7
2017-03-07T01:33:15.081Z,998.74
2017-03-07T01:34:28.135Z,998.73
2017-03-07T01:35:41.181Z,998.77
2017-03-07T01:36:54.229Z,998.74
2017-03-07T01:38:07.353Z,998.78
2017-03-07T01:39:20.462Z,998.74
2017-03-07T01:40:33.513Z,998.75
2017-03-07T01:41:46.559Z,998.8
2017-03-07T01:42:59.608Z,998.82
2017-03-07T01:44:12.668Z,998.76
2017-03-07T01:45:25.692Z,998.82
2017-03-07T01:46:38.767Z,998.82
2017-03-07T01:47:51.818Z,998.8
2017-03-07T01:49:04.906Z,998.83
2017-03-07T01:50:17.975Z,998.84
2017-03-07T01:51:30.272Z,998.85
2017-03-07T01:52:43.342Z,998.86
2017-03-07T01:53:56.445Z,998.9
2017-03-07T01:55:09.539Z,998.91
2017-03-07T01:56:22.577Z,998.87
2017-03-07T01:57:35.633Z,998.95
2017-03-07T01:58:48.679Z,998.95
2017-03-07T02:00:01.697Z,998.93
2017-03-07T02:01:14.796Z,998.95
2017-03-07T02:02:27.871Z,998.94
2017-03-07T02:03:40.954Z,999.03
2017-03-07T02:04:53.651Z,999
2017-03-07T02:06:06.681Z,999.01
2017-03-07T02:07:19.726Z,999.11
2017-03-07T02:08:32.814Z,999.05
2017-03-07T02:09:45.884Z,999.07
2017-03-07T02:10:58.985Z,999.07
2017-03-07T02:12:12.060Z,999.09
2017-03-07T02:13:25.132Z,999.13
2017-03-07T02:14:38.198Z,999.11
2017-03-07T02:15:51.221Z,999.15
2017-03-07T02:17:04.557Z,999.15
2017-03-07T02:18:17.657Z,999.15
2017-03-07T02:19:30.757Z,999.17
2017-03-07T02:20:43.806Z,999.18
2017-03-07T02:21:56.897Z,999.16
2017-03-07T02:23:09.974Z,999.23
2017-03-07T02:24:23.057Z,999.16
2017-03-07T02:25:36.092Z,999.23
2017-03-07T02:26:49.177Z,999.25
2017-03-07T02:28:02.299Z,999.25
2017-03-07T02:29:15.415Z,999.24
2017-03-07T02:30:28.494Z,999.28
2017-03-07T02:31:41.545Z,999.28
2017-03-07T02:32:54.616Z,999.26
2017-03-07T02:34:07.678Z,999.31
2017-03-07T02:35:20.734Z,999.32
2017-03-07T02:36:33.826Z,999.3
2017-03-07T02:37:46.940Z,999.35
2017-03-07T02:38:59.994Z,999.32
2017-03-07T02:40:13.054Z,999.39
2017-03-07T02:41:26.113Z,999.4
2017-03-07T02:42:38.777Z,999.4
2017-03-07T02:43:51.451Z,999.4
2017-03-07T02:45:04.499Z,999.41
2017-03-07T02:46:17.546Z,999.45
2017-03-07T02:47:30.629Z,999.47
2017-03-07T02:48:43.684Z,999.39
2017-03-07T02:49:56.775Z,999.45
2017-03-07T02:51:09.479Z,999.45
2017-03-07T02:52:22.548Z,999.46
2017-03-07T02:53:35.641Z,999.43
2017-03-07T02:54:48.690Z,999.4
2017-03-07T02:56:01.350Z,999.44
2017-03-07T02:57:14.007Z,999.49
2017-03-07T02:58:27.121Z,999.48
2017-03-07T02:59:40.166Z,999.54
2017-03-07T03:00:53.246Z,999.47
2017-03-07T03:02:06.263Z,999.51
2017-03-07T03:03:19.311Z,999.51
2017-03-07T03:04:32.397Z,999.53
2017-03-07T03:05:45.475Z,999.57
2017-03-07T03:06:58.499Z,999.58
2017-03-07T03:08:11.170Z,999.58
2017-03-07T03:09:24.221Z,999.6
2017-03-07T03:10:36.912Z,999.63
2017-03-07T03:11:49.947Z,999.66
2017-03-07T03:13:03.070Z,999.66
2017-03-07T03:14:16.167Z,999.67
2017-03-07T03:15:29.221Z,999.68
2017-03-07T03:16:42.305Z,999.76
2017-03-07T03:17:55.375Z,999.76
2017-03-07T03:19:07.689Z,999.72
2017-03-07T03:20:20.368Z,999.82
2017-03-07T03:21:33.450Z,999.82
2017-03-07T03:22:46.491Z,999.81
2017-03-07T03:23:59.184Z,999.86
2017-03-07T03:25:11.863Z,999.87
2017-03-07T03:26:24.958Z,999.89
2017-03-07T03:27:37.993Z,999.99
2017-03-07T03:28:51.076Z,999.99
2017-03-07T03:30:03.769Z,999.94
2017-03-07T03:31:16.504Z,999.97
2017-03-07T03:32:29.159Z,1000.01
2017-03-07T03:33:42.209Z,1000.01
2017-03-07T03:34:55.254Z,1000.06
2017-03-07T03:36:08.347Z,1000.09
2017-03-07T03:37:21.393Z,1000.12
2017-03-07T03:38:34.471Z,1000.15
2017-03-07T03:39:47.185Z,1000.17
2017-03-07T03:41:00.206Z,1000.21
2017-03-07T03:42:13.269Z,1000.24
2017-03-07T03:43:26.343Z,1000.29
2017-03-07T03:44:39.022Z,1000.31
2017-03-07T03:45:52.091Z,1000.34
2017-03-07T03:47:05.139Z,1000.37
2017-03-07T03:48:18.215Z,1000.38
2017-03-07T03:49:31.280Z,1000.46
2017-03-07T03:50:44.347Z,1000.37
2017-03-07T03:51:57.401Z,1000.48
2017-03-07T03:53:10.461Z,1000.45
2017-03-07T03:54:23.514Z,1000.44
2017-03-07T03:55:36.186Z,1000.49
2017-03-07T03:56:49.269Z,1000.54
2017-03-07T03:58:02.340Z,1000.53
2017-03-07T03:59:15.428Z,1000.53
2017-03-07T04:00:27.343Z,1000.58
2017-03-07T04:01:40.035Z,1000.59
2017-03-07T04:02:53.108Z,1000.66
2017-03-07T04:04:06.180Z,1000.66
2017-03-07T04:05:18.898Z,1000.64
2017-03-07T04:06:31.999Z,1000.66
2017-03-07T04:07:45.110Z,1000.64
2017-03-07T04:08:58.169Z,1000.69
2017-03-07T04:10:11.231Z,1000.72
2017-03-07T04:11:23.936Z,1000.68
2017-03-07T04:12:37.015Z,1000.7
2017-03-07T04:13:49.672Z,1000.69
2017-03-07T04:15:02.756Z,1000.67
2017-03-07T04:16:15.863Z,1000.72
2017-03-07T04:17:28.933Z,1000.71
2017-03-07T04:18:42.009Z,1000.65
2017-03-07T04:19:55.047Z,1000.7
2017-03-07T04:21:07.744Z,1000.67
2017-03-07T04:22:20.439Z,1000.71
2017-03-07T04:23:33.143Z,1000.69
2017-03-07T04:24:46.202Z,1000.73
2017-03-07T04:25:59.299Z,1000.74
2017-03-07T04:27:12.379Z,1000.76
2017-03-07T04:28:25.070Z,1000.73
2017-03-07T04:29:38.143Z,1000.75
2017-03-07T04:30:51.214Z,1000.78
2017-03-07T04:32:04.335Z,1000.8
2017-03-07T04:33:17.378Z,1000.84
2017-03-07T04:34:30.449Z,1000.85
2017-03-07T04:35:43.540Z,1000.86
2017-03-07T04:36:56.586Z,1000.91
2017-03-07T04:38:09.682Z,1000.95
2017-03-07T04:39:22.753Z,1000.97
2017-03-07T04:40:35.831Z,1000.93
2017-03-07T04:41:48.899Z,1001
2017-03-07T04:43:01.599Z,1000.9
2017-03-07T04:44:14.687Z,1001
2017-03-07T04:45:27.365Z,1001.02
2017-03-07T04:46:40.428Z,1001.04
2017-03-07T04:47:53.482Z,1001.03
2017-03-07T04:49:06.549Z,1001.07
2017-03-07T04:50:19.574Z,1001.09
2017-03-07T04:51:32.619Z,1001.04
2017-03-07T04:52:45.662Z,1001.13
2017-03-07T04:53:58.758Z,1001.1
2017-03-07T04:55:11.681Z,1001.11
2017-03-07T04:56:24.723Z,1001.1
2017-03-07T04:57:37.796Z,1001.14
2017-03-07T04:58:50.892Z,1001.17
2017-03-07T05:00:03.930Z,1001.18
2017-03-07T05:01:16.608Z,1001.17
2017-03-07T05:02:29.671Z,1001.18
2017-03-07T05:03:42.721Z,1001.22
2017-03-07T05:04:55.771Z,1001.25
2017-03-07T05:06:08.417Z,1001.22
2017-03-07T05:07:21.490Z,1001.24
2017-03-07T05:08:34.562Z,1001.29
2017-03-07T05:09:47.607Z,1001.29
2017-03-07T05:11:00.656Z,1001.36
2017-03-07T05:12:13.723Z,1001.4
2017-03-07T05:13:26.423Z,1001.29
2017-03-07T05:14:39.092Z,1001.43
2017-03-07T05:15:52.151Z,1001.43
2017-03-07T05:17:05.215Z,1001.41
2017-03-07T05:18:18.303Z,1001.41
2017-03-07T05:19:31.000Z,1001.4
2017-03-07T05:20:43.668Z,1001.45
2017-03-07T05:21:56.709Z,1001.52
2017-03-07T05:23:09.855Z,1001.51
2017-03-07T05:24:22.925Z,1001.49
2017-03-07T05:25:35.630Z,1001.53
2017-03-07T05:26:48.672Z,1001.57
2017-03-07T05:28:01.617Z,1001.53
2017-03-07T05:29:14.692Z,1001.57
2017-03-07T05:30:27.734Z,1001.65
2017-03-07T05:31:40.435Z,1001.64
2017-03-07T05:32:53.522Z,1001.67
2017-03-07T05:34:06.593Z,1001.66
2017-03-07T05:35:19.622Z,1001.66
2017-03-07T05:36:32.291Z,1001.68
2017-03-07T05:37:45.352Z,1001.69
2017-03-07T05:38:58.398Z,1001.69
2017-03-07T05:40:11.444Z,1001.75
2017-03-07T05:41:24.530Z,1001.72
2017-03-07T05:42:37.596Z,1001.77
2017-03-07T05:43:50.682Z,1001.76
2017-03-07T05:45:04.018Z,1001.76
2017-03-07T05:46:17.080Z,1001.76
2017-03-07T05:47:30.147Z,1001.75
2017-03-07T05:48:43.276Z,1001.81
2017-03-07T05:49:56.346Z,1001.86
2017-03-07T05:51:09.066Z,1001.84
2017-03-07T05:52:22.109Z,1001.95
2017-03-07T05:53:34.852Z,1001.93
2017-03-07T05:54:47.932Z,1001.92
2017-03-07T05:56:00.975Z,1001.97
2017-03-07T05:57:14.024Z,1002
2017-03-07T05:58:27.066Z,1002.04
2017-03-07T05:59:39.764Z,1002.04
2017-03-07T06:00:52.461Z,1002.07
2017-03-07T06:02:05.578Z,1002.1
2017-03-07T06:03:18.265Z,1002.1
2017-03-07T06:04:30.939Z,1002.14
2017-03-07T06:05:43.994Z,1002.13
2017-03-07T06:06:56.686Z,1002.18
2017-03-07T06:08:09.757Z,1002.22
2017-03-07T06:09:22.802Z,1002.23
2017-03-07T06:10:35.854Z,1002.34
2017-03-07T06:11:49.171Z,1002.33
2017-03-07T06:13:02.221Z,1002.36
2017-03-07T06:14:15.353Z,1002.34
2017-03-07T06:15:28.028Z,1002.39
2017-03-07T06:16:41.077Z,1002.35
2017-03-07T06:17:54.124Z,1002.38
2017-03-07T06:19:07.147Z,1002.43
2017-03-07T06:20:19.807Z,1002.48
2017-03-07T06:21:32.860Z,1002.49
2017-03-07T06:22:45.924Z,1002.56
2017-03-07T06:23:58.970Z,1002.55
2017-03-07T06:25:12.027Z,1002.53
2017-03-07T06:26:25.111Z,1002.6
2017-03-07T06:27:38.158Z,1002.63
2017-03-07T06:28:51.191Z,1002.67
2017-03-07T06:30:04.243Z,1002.68
2017-03-07T06:31:17.006Z,1002.73
2017-03-07T06:32:29.728Z,1002.73
2017-03-07T06:33:42.394Z,1002.75
2017-03-07T06:34:55.490Z,1002.78
2017-03-07T06:36:08.135Z,1002.81
2017-03-07T06:37:20.807Z,1002.78
2017-03-07T06:38:33.471Z,1002.77
2017-03-07T06:39:46.142Z,1002.78
2017-03-07T06:40:59.212Z,1002.74
2017-03-07T06:42:12.307Z,1002.83
2017-03-07T06:43:25.370Z,1002.87
2017-03-07T06:44:38.079Z,1002.86
2017-03-07T06:45:51.129Z,1002.94
2017-03-07T06:47:04.253Z,1002.88
2017-03-07T06:48:17.366Z,1002.88
2017-03-07T06:49:30.416Z,1002.94
2017-03-07T06:50:43.513Z,1002.94
2017-03-07T06:51:56.559Z,1002.89
2017-03-07T06:53:09.654Z,1002.95
2017-03-07T06:54:22.333Z,1002.97
2017-03-07T06:55:35.046Z,1002.95
2017-03-07T06:56:48.091Z,1003.01
2017-03-07T06:58:01.140Z,1002.98
2017-03-07T06:59:14.213Z,1003.02
2017-03-07T07:00:27.304Z,1003.02
2017-03-07T07:01:39.971Z,1003.09
2017-03-07T07:02:52.674Z,1003.11
2017-03-07T07:04:05.737Z,1003.18
2017-03-07T07:05:18.779Z,1003.18
2017-03-07T07:06:31.900Z,1003.23
2017-03-07T07:07:44.208Z,1003.22
2017-03-07T07:08:57.295Z,1003.25
2017-03-07T07:10:10.371Z,1003.31
2017-03-07T07:11:23.416Z,1003.28
2017-03-07T07:12:36.517Z,1003.37
2017-03-07T07:13:49.558Z,1003.32
2017-03-07T07:15:02.635Z,1003.42
2017-03-07T07:16:15.691Z,1003.43
2017-03-07T07:17:28.349Z,1003.5
2017-03-07T07:18:41.010Z,1003.47
2017-03-07T07:19:54.088Z,1003.52
2017-03-07T07:21:07.137Z,1003.55
2017-03-07T07:22:20.458Z,1003.6
2017-03-07T07:23:33.554Z,1003.62
2017-03-07T07:24:46.571Z,1003.65
2017-03-07T07:25:58.863Z,1003.66
2017-03-07T07:27:11.556Z,1003.67
2017-03-07T07:28:24.677Z,1003.66
2017-03-07T07:29:37.354Z,1003.65
2017-03-07T07:30:50.397Z,1003.7
2017-03-07T07:32:03.472Z,1003.74
2017-03-07T07:33:16.142Z,1003.77
2017-03-07T07:34:29.272Z,1003.81
2017-03-07T07:35:42.308Z,1003.86
2017-03-07T07:36:54.980Z,1003.82
2017-03-07T07:38:08.029Z,1003.85
2017-03-07T07:39:20.745Z,1003.89
2017-03-07T07:40:33.443Z,1003.88
2017-03-07T07:41:46.490Z,1003.83
2017-03-07T07:42:59.564Z,1003.83
2017-03-07T07:44:12.676Z,1003.86
2017-03-07T07:45:25.422Z,1003.86
2017-03-07T07:46:38.117Z,1003.85
2017-03-07T07:47:51.171Z,1003.82
2017-03-07T07:49:04.243Z,1003.87
2017-03-07T07:50:17.365Z,1003.83
2017-03-07T07:51:30.073Z,1003.85
2017-03-07T07:52:43.118Z,1003.9
2017-03-07T07:53:55.776Z,1003.89
2017-03-07T07:55:08.086Z,1003.91
2017-03-07T07:56:21.182Z,1003.95
2017-03-07T07:57:34.240Z,1003.95
2017-03-07T07:58:47.297Z,1004
2017-03-07T08:00:00.353Z,1003.98
2017-03-07T08:01:13.080Z,1003.99
2017-03-07T08:02:26.172Z,1004.01
2017-03-07T08:03:38.871Z,1004.02
2017-03-07T08:04:51.955Z,1004.04
2017-03-07T08:06:05.031Z,1004.04
2017-03-07T08:07:18.098Z,1004.1
2017-03-07T08:08:30.776Z,1004.08
2017-03-07T08:09:43.419Z,1004.16
2017-03-07T08:10:56.548Z,1004.17
2017-03-07T08:12:09.610Z,1004.18
2017-03-07T08:13:22.737Z,1004.2
2017-03-07T08:14:35.823Z,1004.2
2017-03-07T08:15:48.472Z,1004.24
2017-03-07T08:17:01.160Z,1004.23
2017-03-07T08:18:13.818Z,1004.28
2017-03-07T08:19:26.894Z,1004.26
2017-03-07T08:20:39.590Z,1004.27
2017-03-07T08:21:52.227Z,1004.3
2017-03-07T08:23:05.366Z,1004.25
2017-03-07T08:24:18.490Z,1004.22
2017-03-07T08:25:31.520Z,1004.28
2017-03-07T08:26:44.230Z,1004.32
2017-03-07T08:27:57.263Z,1004.32
2017-03-07T08:29:10.328Z,1004.33
2017-03-07T08:30:23.390Z,1004.36
2017-03-07T08:31:36.494Z,1004.38
2017-03-07T08:32:49.560Z,1004.38
2017-03-07T08:34:02.263Z,1004.4
2017-03-07T08:35:15.327Z,1004.42
2017-03-07T08:36:28.389Z,1004.38
2017-03-07T08:37:41.456Z,1004.44
2017-03-07T08:38:54.123Z,1004.45
2017-03-07T08:40:06.832Z,1004.45
2017-03-07T08:41:19.536Z,1004.47
2017-03-07T08:42:32.607Z,1004.5
2017-03-07T08:43:44.923Z,1004.59
2017-03-07T08:44:57.967Z,1004.58
2017-03-07T08:46:11.062Z,1004.58
2017-03-07T08:47:24.112Z,1004.67
2017-03-07T08:48:37.145Z,1004.72
2017-03-07T08:49:50.232Z,1004.62
2017-03-07T08:51:03.308Z,1004.66
2017-03-07T08:52:16.404Z,1004.65
2017-03-07T08:53:29.074Z,1004.68
2017-03-07T08:54:41.801Z,1004.77
2017-03-07T08:55:54.490Z,1004.86
2017-03-07T08:57:07.536Z,1004.87
2017-03-07T08:58:20.197Z,1004.89
2017-03-07T08:59:33.295Z,1004.9
2017-03-07T09:00:46.349Z,1004.88
2017-03-07T09:01:59.403Z,1004.94
2017-03-07T09:03:12.083Z,1004.94
2017-03-07T09:04:25.129Z,1004.98
2017-03-07T09:05:38.236Z,1004.95
2017-03-07T09:06:51.275Z,1004.92
2017-03-07T09:08:04.338Z,1004.96
2017-03-07T09:09:17.389Z,1004.96
2017-03-07T09:10:30.073Z,1004.98
2017-03-07T09:11:43.177Z,1004.98
2017-03-07T09:12:56.261Z,1005.02
2017-03-07T09:14:09.368Z,1005.08
2017-03-07T09:15:22.446Z,1005.14
2017-03-07T09:16:34.721Z,1005.07
2017-03-07T09:17:47.766Z,1005.16
2017-03-07T09:19:00.842Z,1005.18
2017-03-07T09:20:13.930Z,1005.25
2017-03-07T09:21:27.018Z,1005.23
2017-03-07T09:22:39.951Z,1005.24
2017-03-07T09:23:52.646Z,1005.29
2017-03-07T09:25:05.731Z,1005.31
2017-03-07T09:26:18.788Z,1005.22
2017-03-07T09:27:31.875Z,1005.25
2017-03-07T09:28:44.581Z,1005.26
2017-03-07T09:29:57.697Z,1005.24
2017-03-07T09:31:10.360Z,1005.27
2017-03-07T09:32:23.396Z,1005.3
2017-03-07T09:33:36.455Z,1005.29
2017-03-07T09:34:49.505Z,1005.32
2017-03-07T09:36:02.556Z,1005.36
2017-03-07T09:37:15.214Z,1005.34
2017-03-07T09:38:28.272Z,1005.35
2017-03-07T09:39:41.339Z,1005.41
2017-03-07T09:40:54.415Z,1005.45
2017-03-07T09:42:07.498Z,1005.51
2017-03-07T09:43:20.560Z,1005.48
2017-03-07T09:44:33.626Z,1005.55
2017-03-07T09:45:46.693Z,1005.61
2017-03-07T09:46:59.742Z,1005.66
2017-03-07T09:48:12.831Z,1005.62
2017-03-07T09:49:25.923Z,1005.6
2017-03-07T09:50:38.973Z,1005.6
2017-03-07T09:51:52.093Z,1005.7
2017-03-07T09:53:05.172Z,1005.7
2017-03-07T09:54:18.215Z,1005.74
2017-03-07T09:55:31.290Z,1005.75
2017-03-07T09:56:44.356Z,1005.74
2017-03-07T09:57:57.459Z,1005.8
2017-03-07T09:59:10.193Z,1005.71
2017-03-07T10:00:23.225Z,1005.68
2017-03-07T10:01:35.944Z,1005.68
2017-03-07T10:02:49.014Z,1005.72
2017-03-07T10:04:02.083Z,1005.64
2017-03-07T10:05:14.384Z,1005.67
2017-03-07T10:06:27.449Z,1005.68
2017-03-07T10:07:40.140Z,1005.69
2017-03-07T10:08:53.221Z,1005.74
2017-03-07T10:10:06.236Z,1005.73
2017-03-07T10:11:19.337Z,1005.79
2017-03-07T10:12:32.395Z,1005.73
2017-03-07T10:13:45.073Z,1005.83
2017-03-07T10:14:58.138Z,1005.81
2017-03-07T10:16:11.168Z,1005.84
2017-03-07T10:17:24.511Z,1005.86
2017-03-07T10:18:37.561Z,1005.89
2017-03-07T10:19:50.633Z,1005.97
2017-03-07T10:21:03.342Z,1005.91
2017-03-07T10:22:15.999Z,1005.98
2017-03-07T10:23:29.065Z,1006.01
2017-03-07T10:24:41.743Z,1006.03
2017-03-07T10:25:54.435Z,1006.01
2017-03-07T10:27:07.479Z,1006.08
2017-03-07T10:28:20.600Z,1006.08
2017-03-07T10:29:33.648Z,1006.08
2017-03-07T10:30:46.699Z,1006.19
2017-03-07T10:31:59.758Z,1006.21
2017-03-07T10:33:12.437Z,1006.21
2017-03-07T10:34:25.500Z,1006.25
2017-03-07T10:35:38.203Z,1006.26
2017-03-07T10:36:51.249Z,1006.26
2017-03-07T10:38:03.945Z,1006.29
2017-03-07T10:39:16.593Z,1006.26
2017-03-07T10:40:29.662Z,1006.42
2017-03-07T10:41:42.722Z,1006.35
2017-03-07T10:42:55.749Z,1006.44
2017-03-07T10:44:08.400Z,1006.48
2017-03-07T10:45:21.470Z,1006.49
2017-03-07T10:46:34.540Z,1006.5
2017-03-07T10:47:47.636Z,1006.46
2017-03-07T10:49:00.775Z,1006.48
2017-03-07T10:50:13.845Z,1006.46
2017-03-07T10:51:26.524Z,1006.5
2017-03-07T10:52:39.616Z,1006.53
2017-03-07T10:53:52.705Z,1006.5
2017-03-07T10:55:05.762Z,1006.52
2017-03-07T10:56:18.855Z,1006.55
2017-03-07T10:57:31.905Z,1006.54
2017-03-07T10:58:45.016Z,1006.58
2017-03-07T10:59:58.085Z,1006.58
2017-03-07T11:01:10.789Z,1006.59
2017-03-07T11:02:23.889Z,1006.63
2017-03-07T11:03:36.576Z,1006.68
2017-03-07T11:04:49.628Z,1006.67
2017-03-07T11:06:02.720Z,1006.72
2017-03-07T11:07:15.420Z,1006.67
2017-03-07T11:08:28.489Z,1006.74
2017-03-07T11:09:41.187Z,1006.74
2017-03-07T11:10:54.276Z,1006.73
2017-03-07T11:12:07.318Z,1006.76
2017-03-07T11:13:20.392Z,1006.81
2017-03-07T11:14:33.468Z,1006.86
2017-03-07T11:15:45.768Z,1006.83
2017-03-07T11:16:58.852Z,1006.83
2017-03-07T11:18:11.909Z,1006.85
2017-03-07T11:19:24.231Z,1006.85
2017-03-07T11:20:37.297Z,1006.8
2017-03-07T11:21:50.342Z,1006.81
2017-03-07T11:23:03.015Z,1006.8
2017-03-07T11:24:16.064Z,1006.8
2017-03-07T11:25:29.105Z,1006.79
2017-03-07T11:26:41.783Z,1006.81
2017-03-07T11:27:54.093Z,1006.83
2017-03-07T11:29:07.210Z,1006.85
2017-03-07T11:30:20.312Z,1006.84
2017-03-07T11:31:33.402Z,1006.87
2017-03-07T11:32:46.506Z,1006.84
2017-03-07T11:33:59.531Z,1006.84
2017-03-07T11:35:12.178Z,1006.84
2017-03-07T11:36:25.246Z,1006.89
2017-03-07T11:37:37.939Z,1006.84
2017-03-07T11:38:51.051Z,1006.84
2017-03-07T11:40:04.181Z,1006.85
2017-03-07T11:41:17.227Z,1006.88
2017-03-07T11:42:30.351Z,1006.88
2017-03-07T11:43:43.043Z,1006.84
2017-03-07T11:44:56.095Z,1006.93
2017-03-07T11:46:09.190Z,1006.9
2017-03-07T11:47:21.907Z,1006.87
2017-03-07T11:48:34.569Z,1006.9
2017-03-07T11:49:47.294Z,1006.94
2017-03-07T11:51:00.423Z,1006.92
2017-03-07T11:52:13.535Z,1006.92
2017-03-07T11:53:26.631Z,1007
2017-03-07T11:54:38.956Z,1006.93
2017-03-07T11:55:51.294Z,1006.97
2017-03-07T11:57:03.976Z,1006.98
2017-03-07T11:58:17.019Z,1007.04
2017-03-07T11:59:30.118Z,1007.1
2017-03-07T12:00:42.781Z,1007.03
2017-03-07T12:01:55.882Z,1007.14
2017-03-07T12:03:08.969Z,1007.1
2017-03-07T12:04:22.033Z,1007.13
2017-03-07T12:05:35.137Z,1007.16
2017-03-07T12:06:47.833Z,1007.16
2017-03-07T12:08:00.897Z,1007.17
2017-03-07T12:09:13.563Z,1007.2
2017-03-07T12:10:26.673Z,1007.21
2017-03-07T12:11:39.352Z,1007.22
2017-03-07T12:12:52.049Z,1007.24
2017-03-07T12:14:05.119Z,1007.26
2017-03-07T12:15:18.190Z,1007.26
2017-03-07T12:16:31.257Z,1007.27
2017-03-07T12:17:43.528Z,1007.27
2017-03-07T12:18:56.580Z,1007.33
2017-03-07T12:20:09.647Z,1007.35
2017-03-07T12:21:22.669Z,1007.4
2017-03-07T12:22:35.761Z,1007.39
2017-03-07T12:23:48.859Z,1007.44
2017-03-07T12:25:01.956Z,1007.52
2017-03-07T12:26:15.034Z,1007.52
2017-03-07T12:27:28.101Z,1007.54
2017-03-07T12:28:40.841Z,1007.56
2017-03-07T12:29:53.919Z,1007.6
2017-03-07T12:31:06.608Z,1007.57
2017-03-07T12:32:19.646Z,1007.59
2017-03-07T12:33:32.694Z,1007.56
2017-03-07T12:34:45.450Z,1007.57
2017-03-07T12:35:58.534Z,1007.57
2017-03-07T12:37:11.583Z,1007.55
2017-03-07T12:38:24.304Z,1007.57
2017-03-07T12:39:36.578Z,1007.58
2017-03-07T12:40:49.275Z,1007.61
2017-03-07T12:42:02.353Z,1007.63
2017-03-07T12:43:15.412Z,1007.67
2017-03-07T12:44:28.436Z,1007.69
2017-03-07T12:45:40.333Z,1007.67
2017-03-07T12:46:53.021Z,1007.69
2017-03-07T12:48:05.718Z,1007.67
2017-03-07T12:49:18.422Z,1007.67
2017-03-07T12:50:31.095Z,1007.66
2017-03-07T12:51:44.188Z,1007.7
2017-03-07T12:52:57.280Z,1007.72
2017-03-07T12:54:10.383Z,1007.7
2017-03-07T12:55:23.455Z,1007.72
2017-03-07T12:56:36.499Z,1007.7
2017-03-07T12:57:49.166Z,1007.74
2017-03-07T12:59:01.830Z,1007.71
2017-03-07T13:00:14.940Z,1007.77
2017-03-07T13:01:28.008Z,1007.84
2017-03-07T13:02:41.097Z,1007.8
2017-03-07T13:03:54.139Z,1007.81
2017-03-07T13:05:07.196Z,1007.82
2017-03-07T13:06:20.289Z,1007.83
2017-03-07T13:07:33.380Z,1007.81
2017-03-07T13:08:46.083Z,1007.88
2017-03-07T13:09:58.751Z,1007.87
2017-03-07T13:11:11.451Z,1007.85
2017-03-07T13:12:24.470Z,1007.93
2017-03-07T13:13:37.968Z,1007.95
2017-03-07T13:14:50.701Z,1007.92
2017-03-07T13:16:03.590Z,1007.97
2017-03-07T13:17:16.322Z,1007.98
2017-03-07T13:18:28.693Z,1008
2017-03-07T13:19:41.747Z,1007.97
2017-03-07T13:20:54.435Z,1008.05
2017-03-07T13:22:07.111Z,1008.05
2017-03-07T13:23:20.227Z,1008.04
2017-03-07T13:24:33.301Z,1008.08
2017-03-07T13:25:46.001Z,1008.05
2017-03-07T13:26:58.648Z,1008.04
2017-03-07T13:28:11.364Z,1008.05
2017-03-07T13:29:24.431Z,1008.05
2017-03-07T13:30:37.506Z,1008.04
2017-03-07T13:31:50.181Z,1008.05
2017-03-07T13:33:03.248Z,1008.07
2017-03-07T13:34:16.313Z,1008.09
2017-03-07T13:35:29.390Z,1008.07
2017-03-07T13:36:42.065Z,1008.09
2017-03-07T13:37:54.758Z,1008.11
2017-03-07T13:39:07.831Z,1008.15
2017-03-07T13:40:20.966Z,1008.18
2017-03-07T13:41:34.020Z,1008.21
2017-03-07T13:42:46.316Z,1008.2
2017-03-07T13:43:59.363Z,1008.17
2017-03-07T13:45:12.437Z,1008.15
2017-03-07T13:46:24.724Z,1008.15
2017-03-07T13:47:37.783Z,1008.17
2017-03-07T13:48:50.873Z,1008.17
2017-03-07T13:50:03.962Z,1008.18
2017-03-07T13:51:17.017Z,1008.13
2017-03-07T13:52:29.686Z,1008.14
2017-03-07T13:53:42.771Z,1008.12
2017-03-07T13:54:55.495Z,1008.17
2017-03-07T13:56:08.545Z,1008.15
2017-03-07T13:57:21.318Z,1008.17
2017-03-07T13:58:33.665Z,1008.19
2017-03-07T13:59:46.641Z,1008.24
2017-03-07T14:00:59.678Z,1008.29
2017-03-07T14:02:12.725Z,1008.23
2017-03-07T14:03:25.395Z,1008.34
2017-03-07T14:04:38.447Z,1008.34
2017-03-07T14:05:51.500Z,1008.33
2017-03-07T14:07:04.568Z,1008.39
2017-03-07T14:08:17.658Z,1008.47
2017-03-07T14:09:30.725Z,1008.47
2017-03-07T14:10:43.416Z,1008.48
2017-03-07T14:11:56.491Z,1008.5
2017-03-07T14:13:08.804Z,1008.47
2017-03-07T14:14:21.911Z,1008.5
2017-03-07T14:15:34.595Z,1008.51
2017-03-07T14:16:46.924Z,1008.51
2017-03-07T14:17:58.842Z,1008.53
2017-03-07T14:19:11.887Z,1008.55
2017-03-07T14:20:24.592Z,1008.56
2017-03-07T14:21:37.262Z,1008.59
2017-03-07T14:22:49.933Z,1008.63
2017-03-07T14:24:02.992Z,1008.69
2017-03-07T14:25:15.746Z,1008.72
2017-03-07T14:26:28.796Z,1008.73
2017-03-07T14:27:41.067Z,1008.71
2017-03-07T14:28:54.112Z,1008.74
2017-03-07T14:30:06.867Z,1008.76
2017-03-07T14:31:19.924Z,1008.76
2017-03-07T14:32:32.818Z,1008.76
2017-03-07T14:33:45.888Z,1008.81
2017-03-07T14:34:58.988Z,1008.8
2017-03-07T14:36:11.686Z,1008.8
2017-03-07T14:37:24.760Z,1008.71
2017-03-07T14:38:38.080Z,1008.79
2017-03-07T14:39:50.803Z,1008.78
2017-03-07T14:41:03.893Z,1008.81
2017-03-07T14:42:16.571Z,1008.82
2017-03-07T14:43:29.629Z,1008.83
2017-03-07T14:44:41.932Z,1008.82
2017-03-07T14:45:55.026Z,1008.81
2017-03-07T14:47:08.089Z,1008.87
2017-03-07T14:48:20.773Z,1008.85
2017-03-07T14:49:33.492Z,1008.85
2017-03-07T14:50:46.556Z,1008.91
2017-03-07T14:51:59.284Z,1008.97